x

Santa Monica Basin - 33nm Wsw Of Santa Monica, Ca (46025) Wave Buoy

10:50 - Sun 1st Feb 2015 All times are PST. -8 hours from GMT.

  • Sig Wave height 3.3ft
  • Swell Direction
  • Peak Period 14s
  • Average Period 6s
  • Wind
    9mph
  • Sea Temp 62°f
  • Ar Temp 62°f
  • Sea Pressure 1020.4mb
  • Santa Monica Basin - 33nm Wsw Of Santa Monica, Ca
  • Santa Monica Basin - 33nm Wsw Of Santa Monica, Ca

More Historic Weather Station data

Upgrade to MSW Pro to gain access to the past 30 days of data for over 8000 Wavebouys and Weather Stations around the globe.

Join Pro

Comparision Forecast

View Surf forecast
   
Dom 02/01 10:50 3.5ft 14s 6s 9
mph
1020.4mb 62f 62f
9:50 3.5ft 13s 7s 4
mph
1020.2mb 62f 62f
8:50 3.5ft 14s 6s 4 7 mph 1019.3mb 62f 61f
7:50 3.5ft 14s 6s 9 11 mph 1018.4mb 62f 61f
6:50 3.5ft 14s 6s 11 13 mph 1018.1mb 62f 62f
5:50 4ft 15s 6s 11 13 mph 1017.5mb 62f 61f
4:50 3.5ft 15s 6s 13 16 mph 1017.2mb 62f 61f
3:50 3.5ft  -  6s 16 18 mph 1016.5mb 62f 61f
2:50 3.5ft 14s 6s 11 13 mph 1016.6mb 62f 61f
1:50 3.5ft 15s 6s 9 11 mph 1017mb 62f 61f
12:50 3.5ft 15s 5s 11 13 mph 1016.4mb 62f 62f
Sáb 01/31 11:50 3.5ft 14s 5s 16 20 mph 1016.3mb 62f 62f
10:50 3.5ft 15s 5s 20 25 mph 1015.8mb 62f 62f
9:50 3.5ft 14s 5s 18 22 mph 1015.4mb 62f 62f
8:50 2.5ft  -  6s 18 22 mph 1014.7mb 62f 63f
7:50 3ft 15s 7s 4 7 mph 1014.8mb 62f 62f
6:50 3ft 15s 6s 7 9 mph 1014.3mb 62f 61f
5:50 3ft 15s 6s 11
mph
1013.6mb 62f 61f
4:50 3.5ft 15s 6s 7 9 mph 1013.3mb 63f 62f
3:50 3.5ft 15s 6s 7 9 mph 1013.1mb 63f 62f
2:50 3.5ft 15s 6s 11 13 mph 1013.1mb 63f 61f
1:50 4.5ft 15s 6s 7 9 mph 1013mb 63f 61f
12:50 4ft 15s 6s 4 7 mph 1013.3mb 63f 62f
11:50 3.5ft 15s 6s  -  2 mph 1013.7mb 63f 62f
10:50 3.5ft 16s 6s 2 4 mph 1014.1mb 62f 61f
9:50 3.5ft 8s 6s 2 4 mph 1013.7mb 62f 61f
8:50 3.5ft 16s 6s  -  2 mph 1013.2mb 62f 62f
7:50 3.5ft 16s 6s 4
mph
1012.2mb 62f 61f
6:50 3.5ft 16s 6s 2 4 mph 1011.5mb 62f 60f
5:50 3.5ft 16s 6s 4
mph
1011.1mb 62f 60f
4:50 3.5ft 16s 6s 2 4 mph 1010.8mb 62f 60f
3:50 3.5ft 16s 6s 4 7 mph 1010.5mb 62f 60f
2:50 3.5ft 16s 6s 4
mph
1010.9mb 62f 60f
1:50 3.5ft 16s 6s 7 9 mph 1010.9mb 62f 60f
12:50 3.5ft 16s 6s 2 4 mph 1011.3mb 62f 60f
Sex 01/30 11:50 3.5ft 12s 6s  -  2 mph 1011.4mb 62f 60f
10:50 3.5ft 16s 6s 4
mph
1011.6mb 62f 60f
9:50 3.5ft 11s 6s 2
mph
1011.7mb 62f 60f
8:50 3ft 11s 6s 2 4 mph 1011.5mb 62f 60f
7:50 3.5ft 17s 6s  -  2 mph 1011.6mb 62f 60f
6:50 3ft 16s 5s 2 4 mph 1011.7mb 62f 60f
5:50 3ft 10s 6s 7
mph
1011.5mb 62f 61f
4:50 3ft 11s 6s 9 11 mph 1011.4mb 62f 62f
3:50 3ft 11s 6s 2 4 mph 1011.2mb 62f 62f
2:50 3ft  -  6s 9 11 mph 1011.1mb 62f 62f
1:50 3ft 11s 6s 11
mph
1011.5mb 62f 62f
12:50 3ft 12s 6s 16 18 mph 1012.2mb 62f 62f
11:50 3ft 12s 6s 13 16 mph 1013.1mb 62f 61f
10:50 2.5ft 17s 6s 11 13 mph 1013.8mb 62f 62f
9:50 2.5ft 12s 7s 13 16 mph 1013.9mb 62f 61f
8:50 2.5ft 17s 8s 9 11 mph 1014.2mb 62f 62f
7:50 2.5ft 17s 8s 7
mph
1014.2mb 62f 62f
6:50 2.5ft 12s 8s 7 9 mph 1014mb 62f 62f
5:50 2.5ft 17s 8s 2 4 mph 1014mb 62f 62f
4:50 2.5ft 17s 8s 2 4 mph 1014.1mb 62f 61f
3:50 2.5ft 17s 8s 4
mph
1014.5mb 62f 62f
2:50 2.5ft 17s 8s 4
mph
1014.9mb 62f 62f
1:50 2.5ft 12s 8s 7
mph
1015.7mb 62f 62f
12:50 2.5ft 13s 8s 7 9 mph 1016.2mb 62f 62f
Qui 01/29 11:50 2.5ft 12s 8s 2 4 mph 1016.3mb 62f 62f
10:50 2.5ft 11s 8s 7 9 mph 1016.8mb 62f 62f
9:50 2.5ft 11s 10s  -  4 mph 1017.1mb 62f 62f
8:50 2.5ft 12s 10s 2 4 mph 1016.9mb 62f 63f
7:50 2.5ft 12s 9s 2 4 mph 1016.8mb 62f 63f
6:50 3ft 12s 10s 4 7 mph 1016.8mb 62f 63f
5:50 3.5ft 13s 11s 4 7 mph 1016mb 62f 62f
4:50 3ft 12s 10s 9
mph
1015.8mb 62f 62f
3:50 3ft 13s 10s 4 7 mph 1015.9mb 62f 63f
2:50 3ft 12s 10s 7
mph
1015.6mb 62f 63f
1:50 3ft 13s  -  7 9 mph 1015.7mb 62f 63f
12:50 3ft 13s 10s  -  2 mph 1016.6mb 62f 64f
11:50 3.5ft 13s 10s  -  2 mph 1017.5mb 62f 64f
10:50 3.5ft 13s 10s 2 4 mph 1018.2mb 62f 64f
9:50 3ft 14s 9s 4
mph
1018.4mb 62f 64f
8:50 3.5ft 14s 10s 4 7 mph 1018.1mb 62f 62f
7:50 3.5ft 13s 10s 4 7 mph 1017.3mb 62f 65f
6:50 3ft 13s 9s  -  2 mph 1016.8mb 62f 64f
5:50 3ft 12s 9s 4
mph
1016.7mb 62f 64f
4:50 3.5ft 13s 9s 2
mph
1017mb 62f 63f
3:50 3.5ft 13s 9s 4 7 mph 1017.1mb 62f 62f
2:50 3.5ft 13s 9s 4 7 mph 1017.4mb 61f 64f
1:50 4ft 14s 10s  -  2 mph 1017.6mb 61f 64f
12:50 4ft 14s 10s  -  2 mph 1018mb 61f 64f
Qua 01/28 11:50 3.5ft 14s 9s 2
mph
1018.5mb 62f 64f
10:50 4.5ft 14s 9s 4 7 mph 1018.6mb 62f 63f
9:50 4.5ft 13s 9s 7 9 mph 1018.9mb 62f 63f
8:50 4ft 13s 9s 9 11 mph 1019.4mb 62f 62f